Aeroporto :
LOGIN :

Iscrizione | Disclaimer

   EN    FR    IT 

 










Sommario :    VFR   VFR Marginale   IFR   IFR Intensivo   IFR Molto Intensivo
Visibilità : 
Base nubi : 
>= 8 km
>= 3000ft
5 / 8 km
1000 / 3000 ft
1500m / 5 km
500 / 1000 ft
800 / 1500m
200 / 500 ft
< 800m
< 200 ft
Simboli :   Temporali  Nebbia  Neve Forte  Precipitazioni Forti  Vento > 20 kt
SIGMETs :   Varie  Temporali  Ghiacco  Turbolenza  Onda orograficha  Ceneri Vulcaniche







- Altitudine del aeroporto : 755 ft
- Codice IATA : DRS


EDDC - Dresden Klotzsche

ULTIMO METAR :
  • 220150Z 27007KT 230V300 9999 FEW047 BKN300 09/05 Q1018

METARs OBSOLETI :
  • 220120Z 26004KT 220V290 CAVOK 10/05 Q1018
  • 220050Z 28005KT 230V320 CAVOK 09/05 Q1018
  • 220020Z 29007KT 260V330 CAVOK 10/05 Q1018
  • 212350Z 29007KT 260V320 CAVOK 10/05 Q1018
  • 212320Z 30007KT 260V340 CAVOK 10/05 Q1018

TAF TAF EDDC
Valido dal 22 a 00 ore il 23 a 00 ore UTC


212300Z 2200/2224 29008KT 9999 SCT030
BECMG 2205/2208 29015G25KT
TEMPO 2208/2212 29020G30KT SHRA BKN012TCU
PROB30
TEMPO 2212/2219 29020G35KT TSRA BKN020CB
Nessun NOTAM noto per questo aeroporto.



MetMap, La meteo Aeronautica in un colpo d'occhio ! - Copyright ORBIFLY Dicembre 2007 - Disclaimer

ORBIFLY MET'MAP TEAM :

Programmazione e sviluppo : Alexandra Zaïnal
Concezione e sviluppo : Baudouin d'Aumeries
Co-Programmazione e sviluppo : Marc-Olivier Méhu
Supporto tecnico e logistico : Manuel Goepfert
Aiuto per la traduzione : Arnaldo La Scala

Contatto : metmap@orbifly.com




FONTI E CREDITI :

   NOAA